Climax, Kansas
Current Conditions -  °F | °C
As of 5:55 PM on Wednesday 24 Dec 2014 (Local Time) from KEQA Reporting Station
Clear Clear  
Wind Chill: 32°   Ceiling: Unl
Heat Index: 36°   Visibility: 10mi
Dew Point: 30°   Wind: 5mph
Humidity: 81%   Direction: 180°S
Pressure: 29.85"   Gusts: NA
Location:  37.6825°N, 96.2141°W
Report Text: KEQA 242355Z AUTO 18004KT 10SM CLR 02/M01 A2985 RMK AO2
Loading
Personal Weather Stations






























Interactive Weather Map New forecast layout! Learn more

10-Day Weather Forecast

Advertisements
Track Severe Weather on mobile